createdAt,value
2023-08-24T00:27:23.191Z,66.44
2023-08-24T00:56:27.250Z,63.1
2023-08-24T01:25:35.235Z,61.16
2023-08-24T01:54:27.413Z,63.43
2023-08-24T02:23:34.109Z,69.27
2023-08-24T02:52:12.745Z,77.69
2023-08-24T03:21:31.044Z,66.97
2023-08-24T03:50:40.619Z,69.52
2023-08-24T04:20:02.620Z,62.83
2023-08-24T04:48:38.309Z,84.18
2023-08-24T05:17:52.368Z,83.74
2023-08-24T05:46:59.978Z,69.36
2023-08-24T06:16:01.731Z,74.77
2023-08-24T06:44:34.723Z,82.79
2023-08-24T07:13:59.843Z,67.26
2023-08-24T07:43:15.072Z,62.77
2023-08-24T08:12:24.779Z,61.03
2023-08-24T08:41:30.355Z,59.36
2023-08-24T09:10:49.629Z,56.09
2023-08-24T09:40:00.715Z,57.59
2023-08-24T10:09:13.613Z,55.46
2023-08-24T10:38:24.030Z,57.2
2023-08-24T11:07:34.394Z,57.1
2023-08-24T11:36:46.002Z,57.06
2023-08-24T12:05:48.578Z,55.97
2023-08-24T12:34:55.349Z,58.9
2023-08-24T13:03:59.134Z,55.5
2023-08-24T13:32:55.292Z,60.06
2023-08-24T14:01:31.743Z,64.64
2023-08-24T14:30:27.424Z,63.63
2023-08-24T14:58:50.432Z,63.8
2023-08-24T15:28:02.565Z,63.8
2023-08-24T15:57:18.156Z,61.7
2023-08-24T16:26:18.330Z,67.74
2023-08-24T16:55:23.973Z,67.33
2023-08-24T17:24:20.474Z,65.42
2023-08-24T17:53:22.039Z,71.07
2023-08-24T18:22:14.132Z,85.83
2023-08-24T18:50:52.925Z,97.38
2023-08-24T19:19:58.403Z,96.23
2023-08-24T19:49:15.474Z,84.81
2023-08-24T20:18:10.338Z,82.88
2023-08-24T20:47:03.940Z,81
2023-08-24T21:16:05.495Z,83.17
2023-08-24T21:45:14.760Z,80.51
2023-08-24T22:14:19.999Z,82.81
2023-08-24T22:42:40.197Z,85.14
2023-08-24T23:11:06.755Z,86.71
2023-08-24T23:39:23.806Z,97
